Time;durP1;ratioP1;P1;durP2;ratioP2;P2;SDS_P1;SDS_P2;PMS_P1;PMS_P2;Temp;Humidity;BMP_temperature;BMP_pressure;BME280_temperature;BME280_humidity;BME280_pressure;Samples;Min_cycle;Max_cycle;Signal;HPM_P1;HPM_P2
2021/09/21 00:01:01;;;;;;;5.10;4.47;;;13.80;99.90;;;;;;5085493;28;20192;-37
2021/09/21 00:03:26;;;;;;;9.30;5.27;;;13.90;99.90;;;;;;5085952;28;20425;-37
2021/09/21 00:05:52;;;;;;;5.00;4.50;;;13.90;99.90;;;;;;5068275;28;20228;-38
2021/09/21 00:08:18;;;;;;;5.87;4.60;;;13.90;99.90;;;;;;5085694;28;20208;-38
2021/09/21 00:10:44;;;;;;;6.37;4.50;;;13.90;99.90;;;;;;5085124;28;20192;-37
2021/09/21 00:13:09;;;;;;;4.70;4.30;;;13.90;99.90;;;;;;5085397;28;20717;-37
2021/09/21 00:15:35;;;;;;;6.57;5.00;;;13.90;99.90;;;;;;5085987;28;20592;-37
2021/09/21 00:18:01;;;;;;;6.43;4.47;;;13.80;99.90;;;;;;5085767;28;20828;-37
2021/09/21 00:20:27;;;;;;;8.60;5.20;;;13.80;99.90;;;;;;5073377;28;20619;-37
2021/09/21 00:22:53;;;;;;;5.60;4.97;;;13.80;99.90;;;;;;5088587;28;20542;-38
2021/09/21 00:25:19;;;;;;;4.90;4.07;;;13.80;99.90;;;;;;5090166;28;20258;-38
2021/09/21 00:27:44;;;;;;;4.80;4.10;;;13.80;99.90;;;;;;5089758;28;20363;-38
2021/09/21 00:30:13;;;;;;;4.73;4.13;;;13.80;99.90;;;;;;5089050;28;21144;-38
2021/09/21 00:32:41;;;;;;;5.63;4.80;;;13.70;99.90;;;;;;5089809;28;20322;-38
2021/09/21 00:35:07;;;;;;;6.37;4.70;;;13.70;99.90;;;;;;5080215;28;20964;-38
2021/09/21 00:37:33;;;;;;;6.47;5.40;;;13.70;99.90;;;;;;5086369;28;20445;-38
2021/09/21 00:39:58;;;;;;;6.03;5.10;;;13.60;99.90;;;;;;5089092;28;20509;-38
2021/09/21 00:42:28;;;;;;;6.40;5.40;;;13.70;99.90;;;;;;5088941;28;20214;-37
2021/09/21 00:45:00;;;;;;;6.60;4.77;;;13.70;99.90;;;;;;5089703;28;20188;-38
2021/09/21 00:47:26;;;;;;;5.97;5.20;;;13.80;99.90;;;;;;5088004;28;20514;-38
2021/09/21 00:49:52;;;;;;;9.73;4.50;;;13.80;99.90;;;;;;5081896;28;21169;-38
2021/09/21 00:52:18;;;;;;;5.87;4.77;;;13.70;99.90;;;;;;5087303;28;20675;-38
2021/09/21 00:54:44;;;;;;;7.47;5.10;;;13.60;99.90;;;;;;5089088;28;20464;-38
2021/09/21 00:57:10;;;;;;;6.77;5.40;;;13.70;99.90;;;;;;5087894;28;20429;-37
2021/09/21 00:59:36;;;;;;;6.40;4.40;;;13.60;99.90;;;;;;5088574;28;20508;-38
2021/09/21 01:02:01;;;;;;;5.83;5.07;;;13.70;99.90;;;;;;5089125;28;20758;-38
2021/09/21 01:04:27;;;;;;;5.27;4.70;;;13.70;99.90;;;;;;5088099;28;20199;-37
2021/09/21 01:06:53;;;;;;;6.17;5.17;;;13.60;99.90;;;;;;5084215;28;20192;-37
2021/09/21 01:09:21;;;;;;;6.93;5.53;;;13.60;99.90;;;;;;5088079;28;20269;-38
2021/09/21 01:11:49;;;;;;;6.00;5.17;;;13.50;99.90;;;;;;5089433;28;20647;-38
2021/09/21 01:14:15;;;;;;;5.87;4.80;;;13.50;99.90;;;;;;5088942;28;20819;-38
2021/09/21 01:16:41;;;;;;;5.90;5.27;;;13.40;99.90;;;;;;5088756;28;21057;-38
2021/09/21 01:19:11;;;;;;;6.50;4.53;;;13.40;99.90;;;;;;5087506;28;20521;-38
2021/09/21 01:21:36;;;;;;;6.63;5.13;;;13.40;99.90;;;;;;5081677;28;20468;-38
2021/09/21 01:24:02;;;;;;;7.67;5.70;;;13.40;99.90;;;;;;5088447;28;20458;-38
2021/09/21 01:26:28;;;;;;;6.13;4.87;;;13.40;99.90;;;;;;5088698;28;20265;-37
2021/09/21 01:28:53;;;;;;;6.27;5.67;;;13.30;99.90;;;;;;5088370;28;20433;-38
2021/09/21 01:31:19;;;;;;;6.70;5.63;;;13.20;99.90;;;;;;5088029;28;20196;-37
2021/09/21 01:33:47;;;;;;;6.53;5.40;;;13.20;99.90;;;;;;5088703;28;20216;-38
2021/09/21 01:36:21;;;;;;;5.37;4.80;;;13.20;99.90;;;;;;5077091;28;20403;-38
2021/09/21 01:38:47;;;;;;;5.77;5.10;;;13.10;99.90;;;;;;5086717;28;20479;-37
2021/09/21 01:41:13;;;;;;;9.50;5.20;;;13.10;99.90;;;;;;5087858;28;20575;-38
2021/09/21 01:43:42;;;;;;;6.37;5.10;;;13.10;99.90;;;;;;5088818;28;20426;-38
2021/09/21 01:46:09;;;;;;;5.43;4.90;;;13.20;99.90;;;;;;5088196;28;20422;-38
2021/09/21 01:48:34;;;;;;;6.87;5.50;;;13.10;99.90;;;;;;5088279;28;21080;-38
2021/09/21 01:51:11;;;;;;;5.20;4.67;;;13.00;99.90;;;;;;5078909;28;20438;-38
2021/09/21 01:59:06;;;;;;;5.83;5.07;;;12.80;99.90;;;;;;5087617;28;20442;-37
2021/09/21 02:01:31;;;;;;;6.50;5.90;;;12.60;99.90;;;;;;5087650;28;20433;-37
2021/09/21 02:03:59;;;;;;;7.57;4.60;;;12.60;99.90;;;;;;5088021;28;20188;-38
2021/09/21 02:06:39;;;;;;;6.40;5.80;;;12.50;99.90;;;;;;5078411;28;20192;-38
2021/09/21 02:09:11;;;;;;;6.03;5.43;;;12.50;99.90;;;;;;5079532;28;20983;-38
2021/09/21 02:11:38;;;;;;;6.57;5.17;;;12.50;99.90;;;;;;5088033;28;20767;-37
2021/09/21 02:14:08;;;;;;;6.20;5.33;;;12.30;99.90;;;;;;5087784;28;20446;-38
2021/09/21 02:16:34;;;;;;;5.73;5.10;;;12.30;99.90;;;;;;5087727;28;20423;-38
2021/09/21 02:19:00;;;;;;;8.00;5.40;;;12.20;99.90;;;;;;5087360;28;20699;-37
2021/09/21 02:21:27;;;;;;;5.83;5.10;;;12.10;99.90;;;;;;5078161;28;20434;-37
2021/09/21 02:23:55;;;;;;;7.63;5.97;;;12.10;99.90;;;;;;5087844;28;20200;-38
2021/09/21 02:26:21;;;;;;;6.10;5.50;;;12.00;99.90;;;;;;5087374;28;20462;-37
2021/09/21 02:28:46;;;;;;;6.33;5.20;;;12.00;99.90;;;;;;5087407;28;20454;-38
2021/09/21 02:31:12;;;;;;;6.77;5.53;;;11.90;99.90;;;;;;5086889;28;20192;-37
2021/09/21 02:33:38;;;;;;;6.27;5.30;;;11.90;99.90;;;;;;5087388;28;20212;-38
2021/09/21 02:36:05;;;;;;;7.13;5.90;;;11.90;99.90;;;;;;5074927;28;20744;-37
2021/09/21 02:38:33;;;;;;;12.43;5.80;;;11.90;99.90;;;;;;5083154;28;20191;-37
2021/09/21 02:40:59;;;;;;;6.47;5.00;;;12.00;99.90;;;;;;5086232;28;20421;-37
2021/09/21 02:43:24;;;;;;;7.47;5.97;;;12.00;99.90;;;;;;5086480;28;20434;-38
2021/09/21 02:45:50;;;;;;;6.13;5.03;;;11.90;99.90;;;;;;5087392;28;20219;-38
2021/09/21 02:48:16;;;;;;;5.63;5.03;;;11.80;99.90;;;;;;5069120;28;20242;-37
2021/09/21 02:50:43;;;;;;;5.70;5.20;;;11.80;99.90;;;;;;5080177;28;20197;-37
2021/09/21 02:53:09;;;;;;;6.90;5.67;;;11.70;99.90;;;;;;5080745;28;20426;-38
2021/09/21 02:55:34;;;;;;;5.97;5.27;;;11.70;99.90;;;;;;5087167;28;20449;-38
2021/09/21 02:58:00;;;;;;;5.70;5.03;;;11.60;99.90;;;;;;5086124;28;20188;-37
2021/09/21 03:00:28;;;;;;;6.80;5.90;;;11.50;99.90;;;;;;5086292;28;20608;-37
2021/09/21 03:02:55;;;;;;;9.13;6.00;;;11.40;99.90;;;;;;5087053;28;20188;-38
2021/09/21 03:05:25;;;;;;;6.40;5.23;;;11.40;99.90;;;;;;5082667;28;20538;-37
2021/09/21 03:08:15;;;;;;;5.77;5.17;;;11.40;99.90;;;;;;5082042;28;20442;-38
2021/09/21 03:18:42;;;;;;;7.27;5.30;;;11.60;99.90;;;;;;5086379;28;20840;-37
2021/09/21 03:21:08;;;;;;;11.47;5.47;;;11.50;99.90;;;;;;5079978;28;20461;-37
2021/09/21 03:23:33;;;;;;;6.27;5.67;;;11.40;99.90;;;;;;5082736;28;20220;-37
2021/09/21 03:25:59;;;;;;;8.63;5.17;;;11.30;99.90;;;;;;5086463;28;20185;-37
2021/09/21 03:28:25;;;;;;;7.90;6.20;;;11.30;99.90;;;;;;5086541;28;20303;-37
2021/09/21 03:30:51;;;;;;;7.33;6.13;;;11.20;99.90;;;;;;5085538;28;20196;-37
2021/09/21 03:33:16;;;;;;;5.60;5.10;;;11.10;99.90;;;;;;5086139;28;20691;-37
2021/09/21 03:35:42;;;;;;;6.03;5.43;;;11.00;99.90;;;;;;5082695;28;20246;-38
2021/09/21 03:38:08;;;;;;;8.87;6.20;;;11.00;99.90;;;;;;5079250;28;20422;-37
2021/09/21 03:40:34;;;;;;;8.80;6.60;;;11.00;99.90;;;;;;5085351;28;20180;-37
2021/09/21 03:43:00;;;;;;;5.90;5.40;;;10.90;99.90;;;;;;5086224;28;20425;-38
2021/09/21 03:45:26;;;;;;;6.80;6.10;;;10.90;99.90;;;;;;5085920;28;20215;-38
2021/09/21 03:47:53;;;;;;;7.03;6.23;;;10.90;99.90;;;;;;5085966;28;20219;-37
2021/09/21 03:50:19;;;;;;;6.70;5.80;;;10.90;99.90;;;;;;5085136;28;20513;-37
2021/09/21 03:52:45;;;;;;;11.53;6.97;;;10.80;99.90;;;;;;5077403;28;20521;-37
2021/09/21 03:55:11;;;;;;;8.03;5.67;;;10.90;99.90;;;;;;5085690;28;21069;-37
2021/09/21 03:57:37;;;;;;;6.80;5.97;;;10.90;99.90;;;;;;5084735;28;20530;-37
2021/09/21 04:00:04;;;;;;;8.60;6.40;;;11.00;99.90;;;;;;5085458;28;20521;-37
2021/09/21 04:02:30;;;;;;;7.73;7.00;;;11.00;99.90;;;;;;5085772;28;20656;-38
2021/09/21 04:04:55;;;;;;;7.80;7.00;;;11.00;99.90;;;;;;5084667;28;20462;-38
2021/09/21 04:07:21;;;;;;;7.27;6.57;;;10.90;99.90;;;;;;5078086;28;20277;-37
2021/09/21 04:09:47;;;;;;;7.60;6.30;;;10.80;99.90;;;;;;5085111;28;20204;-38
2021/09/21 04:12:12;;;;;;;7.30;6.10;;;10.80;99.90;;;;;;5085923;28;20196;-37
2021/09/21 04:14:38;;;;;;;6.73;6.03;;;10.80;99.90;;;;;;5085625;28;20218;-37
2021/09/21 04:17:04;;;;;;;7.23;6.00;;;10.70;99.90;;;;;;5085486;28;20271;-38
2021/09/21 04:19:29;;;;;;;10.97;6.30;;;10.70;99.90;;;;;;5085263;28;20355;-37
2021/09/21 04:21:55;;;;;;;9.50;6.27;;;10.70;99.90;;;;;;5075200;28;20192;-37
2021/09/21 04:24:21;;;;;;;7.30;6.20;;;11.00;99.90;;;;;;5081000;28;20713;-37
2021/09/21 04:26:46;;;;;;;6.07;5.40;;;11.00;99.90;;;;;;5085484;28;20184;-37
2021/09/21 04:29:12;;;;;;;6.67;5.60;;;10.80;99.90;;;;;;5085228;28;20196;-38
2021/09/21 04:31:41;;;;;;;7.07;5.83;;;10.70;99.90;;;;;;5085236;28;20184;-37
2021/09/21 04:34:07;;;;;;;7.33;5.70;;;10.80;99.90;;;;;;5085783;28;20733;-37
2021/09/21 04:36:33;;;;;;;8.90;6.40;;;10.50;99.90;;;;;;5077687;28;20435;-37
2021/09/21 04:38:59;;;;;;;7.60;6.53;;;10.70;99.90;;;;;;5081549;28;20582;-38
2021/09/21 04:41:24;;;;;;;7.30;6.53;;;10.60;99.90;;;;;;5085611;28;20219;-38
2021/09/21 04:43:50;;;;;;;7.60;6.53;;;10.80;99.90;;;;;;5085928;28;20196;-37
2021/09/21 04:46:16;;;;;;;9.90;7.47;;;10.60;99.90;;;;;;5080842;28;20184;-37
2021/09/21 04:48:42;;;;;;;8.37;6.83;;;10.70;99.90;;;;;;5085325;28;21005;-37
2021/09/21 04:51:08;;;;;;;7.33;6.57;;;10.70;99.90;;;;;;5077314;28;20446;-37
2021/09/21 04:53:34;;;;;;;6.57;5.97;;;10.50;99.90;;;;;;5076227;28;20206;-37
2021/09/21 04:56:00;;;;;;;8.10;6.67;;;10.70;99.90;;;;;;5085338;28;20418;-37
2021/09/21 04:58:25;;;;;;;11.30;6.50;;;10.80;99.90;;;;;;5083351;28;20433;-37
2021/09/21 05:00:51;;;;;;;7.13;6.13;;;10.80;99.90;;;;;;5084667;28;20181;-37
2021/09/21 05:03:17;;;;;;;7.27;6.50;;;10.60;99.90;;;;;;5085375;28;20238;-37
2021/09/21 05:05:43;;;;;;;7.87;7.07;;;10.70;99.90;;;;;;5085637;28;20220;-36
2021/09/21 05:08:08;;;;;;;7.20;6.50;;;10.60;99.90;;;;;;5076347;28;20193;-37
2021/09/21 05:10:34;;;;;;;9.90;7.27;;;10.30;99.90;;;;;;5088379;28;20551;-37
2021/09/21 05:12:59;;;;;;;7.53;6.70;;;10.50;99.90;;;;;;5089046;28;20192;-37
2021/09/21 05:15:26;;;;;;;7.63;6.93;;;10.60;99.90;;;;;;5088690;28;20211;-37
2021/09/21 05:17:52;;;;;;;7.27;6.50;;;10.40;99.90;;;;;;5088347;28;20188;-37
2021/09/21 05:20:18;;;;;;;7.93;7.10;;;10.30;99.90;;;;;;5087991;28;20430;-37
2021/09/21 05:22:50;;;;;;;6.77;6.10;;;10.30;99.90;;;;;;5082351;28;21161;-36
2021/09/21 05:25:16;;;;;;;7.03;6.20;;;10.30;99.90;;;;;;5088166;28;20429;-36
2021/09/21 05:27:42;;;;;;;7.70;6.90;;;10.40;99.90;;;;;;5089012;28;20426;-36
2021/09/21 05:30:08;;;;;;;7.10;6.10;;;10.40;99.90;;;;;;5088010;28;20204;-36
2021/09/21 05:32:33;;;;;;;8.70;6.97;;;10.60;99.90;;;;;;5088727;28;20185;-36
2021/09/21 05:34:59;;;;;;;7.63;6.80;;;10.50;99.90;;;;;;5088657;28;20461;-37
2021/09/21 05:37:27;;;;;;;10.07;7.87;;;10.30;99.90;;;;;;5077242;28;20212;-36
2021/09/21 05:39:53;;;;;;;9.10;6.90;;;10.40;99.90;;;;;;5086640;28;20198;-36
2021/09/21 05:42:19;;;;;;;8.20;6.87;;;10.40;99.90;;;;;;5085355;28;20434;-37
2021/09/21 05:44:45;;;;;;;7.60;6.83;;;10.40;99.90;;;;;;5087937;28;20594;-37
2021/09/21 05:47:12;;;;;;;9.00;7.23;;;10.70;99.90;;;;;;5088362;28;20220;-36
2021/09/21 05:49:38;;;;;;;8.70;7.20;;;10.50;99.90;;;;;;5083457;28;20256;-36
2021/09/21 05:52:05;;;;;;;9.87;8.80;;;10.60;99.90;;;;;;5084466;28;21085;-36
2021/09/21 05:54:31;;;;;;;9.00;7.10;;;10.40;99.90;;;;;;5092954;28;20541;-37
2021/09/21 05:56:56;;;;;;;9.67;7.50;;;10.40;99.90;;;;;;5077153;28;20525;-37
2021/09/21 05:59:22;;;;;;;10.10;8.00;;;10.40;99.90;;;;;;5079486;28;20212;-37
2021/09/21 06:01:48;;;;;;;9.83;7.27;;;10.50;99.90;;;;;;5087250;28;20180;-37
2021/09/21 06:04:14;;;;;;;9.33;7.73;;;10.80;99.90;;;;;;5088157;28;20192;-37
2021/09/21 06:06:39;;;;;;;8.17;7.27;;;10.60;99.90;;;;;;5084612;28;20276;-37
2021/09/21 06:09:05;;;;;;;9.40;7.50;;;10.80;99.90;;;;;;5084576;28;20446;-36
2021/09/21 06:11:34;;;;;;;8.67;7.37;;;10.80;99.90;;;;;;5086467;28;20197;-37
2021/09/21 06:14:04;;;;;;;9.97;8.10;;;11.00;99.90;;;;;;5084045;28;20237;-36
2021/09/21 06:16:31;;;;;;;12.10;8.47;;;11.20;99.90;;;;;;5084173;28;20439;-36
2021/09/21 06:18:57;;;;;;;11.63;7.87;;;11.30;99.90;;;;;;5086800;28;20429;-37
2021/09/21 06:21:24;;;;;;;9.30;8.00;;;11.30;99.90;;;;;;5088052;28;20635;-36
2021/09/21 06:23:50;;;;;;;9.17;8.07;;;11.40;99.90;;;;;;5084310;28;20434;-37
2021/09/21 06:26:16;;;;;;;12.10;7.40;;;11.50;99.90;;;;;;5086371;28;20434;-36
2021/09/21 06:28:41;;;;;;;13.50;8.60;;;11.50;99.90;;;;;;5083643;28;20203;-36
2021/09/21 06:31:08;;;;;;;12.30;9.83;;;11.60;99.90;;;;;;5086636;28;20433;-36
2021/09/21 06:33:33;;;;;;;9.90;7.93;;;11.60;99.90;;;;;;5087328;28;20205;-37
2021/09/21 06:35:59;;;;;;;9.53;8.03;;;11.70;99.90;;;;;;5087777;28;20422;-37
2021/09/21 06:38:25;;;;;;;9.70;7.40;;;11.70;99.90;;;;;;5074546;28;20213;-37
2021/09/21 06:40:51;;;;;;;10.60;7.50;;;11.70;99.90;;;;;;5084976;28;20531;-36
2021/09/21 06:43:16;;;;;;;9.60;8.40;;;11.70;99.90;;;;;;5087183;28;20180;-37
2021/09/21 06:45:42;;;;;;;10.43;7.53;;;11.70;99.90;;;;;;5087290;28;20188;-37
2021/09/21 06:48:08;;;;;;;8.90;8.00;;;11.80;99.90;;;;;;5087039;28;20208;-36
2021/09/21 06:50:34;;;;;;;9.80;7.57;;;11.70;99.90;;;;;;5086456;28;20250;-36
2021/09/21 06:53:00;;;;;;;9.50;7.70;;;11.70;99.90;;;;;;5077031;28;20838;-36
2021/09/21 06:55:25;;;;;;;10.57;8.67;;;11.70;99.90;;;;;;5081663;28;20490;-37
2021/09/21 06:57:53;;;;;;;8.97;7.43;;;11.80;99.90;;;;;;5086002;28;20212;-37
2021/09/21 07:00:20;;;;;;;10.70;8.00;;;11.80;99.90;;;;;;5086510;28;20610;-36
2021/09/21 07:02:48;;;;;;;11.70;7.80;;;11.90;99.90;;;;;;5087085;28;20475;-37
2021/09/21 07:05:14;;;;;;;11.47;8.60;;;11.90;99.90;;;;;;5086835;28;20450;-37
2021/09/21 07:07:45;;;;;;;9.67;8.57;;;12.00;99.90;;;;;;5078110;28;20470;-37
2021/09/21 07:10:11;;;;;;;8.80;7.67;;;12.10;99.90;;;;;;5081163;28;21027;-37
2021/09/21 07:12:37;;;;;;;9.93;7.37;;;12.20;99.90;;;;;;5086099;28;21098;-38
2021/09/21 07:15:02;;;;;;;8.17;7.33;;;12.30;99.90;;;;;;5086752;28;20459;-37
2021/09/21 07:17:29;;;;;;;10.13;7.67;;;12.30;99.90;;;;;;5061914;28;20508;-37
2021/09/21 07:19:55;;;;;;;9.40;7.63;;;12.40;99.90;;;;;;5071027;28;21002;-37
2021/09/21 07:22:20;;;;;;;14.53;8.40;;;12.50;99.90;;;;;;5081117;28;20211;-37
2021/09/21 07:24:46;;;;;;;9.30;7.40;;;12.60;99.90;;;;;;5078841;28;20534;-37
2021/09/21 07:27:12;;;;;;;8.20;7.40;;;12.70;99.90;;;;;;5086614;28;20246;-37
2021/09/21 07:29:37;;;;;;;9.27;8.00;;;12.80;99.90;;;;;;5085249;28;20203;-37
2021/09/21 07:32:04;;;;;;;8.87;7.20;;;12.90;99.90;;;;;;5086134;28;20723;-37
2021/09/21 07:34:30;;;;;;;7.80;7.00;;;13.00;99.90;;;;;;5085665;28;20710;-36
2021/09/21 07:36:55;;;;;;;8.80;6.50;;;13.20;99.90;;;;;;5084710;28;20441;-36
2021/09/21 07:39:21;;;;;;;9.80;6.37;;;13.30;99.90;;;;;;5081298;28;20201;-37
2021/09/21 07:41:46;;;;;;;9.80;7.30;;;13.50;99.90;;;;;;5085589;28;20195;-37
2021/09/21 07:44:12;;;;;;;8.87;7.00;;;13.60;99.90;;;;;;5086498;28;20192;-37
2021/09/21 07:46:38;;;;;;;7.40;6.10;;;13.80;99.90;;;;;;5085937;28;20200;-37
2021/09/21 07:49:04;;;;;;;7.90;6.43;;;13.90;99.90;;;;;;5085587;28;20188;-37
2021/09/21 07:51:30;;;;;;;6.73;5.80;;;14.00;99.90;;;;;;5085999;28;20422;-37
2021/09/21 07:53:56;;;;;;;7.00;5.93;;;14.10;99.90;;;;;;5077076;28;20220;-36
2021/09/21 07:56:21;;;;;;;6.90;5.90;;;14.30;99.90;;;;;;5085596;28;20555;-37
2021/09/21 07:58:48;;;;;;;7.37;6.07;;;14.30;99.90;;;;;;5084736;28;20201;-37
2021/09/21 08:01:13;;;;;;;7.47;6.67;;;14.30;99.90;;;;;;5085505;28;20284;-36
2021/09/21 08:03:39;;;;;;;8.43;7.50;;;14.40;99.90;;;;;;5086045;28;20871;-37
2021/09/21 08:06:05;;;;;;;8.33;6.50;;;14.50;99.90;;;;;;5085679;28;20196;-37
2021/09/21 08:08:30;;;;;;;8.10;6.23;;;14.50;99.90;;;;;;5075167;28;20204;-37
2021/09/21 08:10:57;;;;;;;8.37;6.67;;;14.60;99.90;;;;;;5084020;28;20609;-37
2021/09/21 08:13:24;;;;;;;9.60;5.80;;;14.60;99.90;;;;;;5083064;28;20204;-37
2021/09/21 08:15:49;;;;;;;12.00;5.67;;;14.60;99.90;;;;;;5085086;28;20785;-37
2021/09/21 08:18:15;;;;;;;8.03;5.53;;;14.70;99.90;;;;;;5085149;28;20560;-37
2021/09/21 08:20:41;;;;;;;8.47;5.90;;;14.70;99.90;;;;;;5084181;28;20184;-37
2021/09/21 08:23:06;;;;;;;8.87;6.27;;;14.80;99.90;;;;;;5077687;28;20260;-37
2021/09/21 08:25:32;;;;;;;7.37;6.13;;;14.90;99.90;;;;;;5081697;28;20193;-37
2021/09/21 08:27:58;;;;;;;6.87;5.30;;;14.90;99.90;;;;;;5084753;28;20547;-38
2021/09/21 08:30:24;;;;;;;6.93;5.90;;;15.00;99.90;;;;;;5083380;28;20192;-37
2021/09/21 08:32:49;;;;;;;8.30;5.90;;;15.00;99.90;;;;;;5085167;28;20414;-37
2021/09/21 08:35:15;;;;;;;10.77;6.93;;;15.10;99.90;;;;;;5085004;28;20515;-37
2021/09/21 08:37:41;;;;;;;10.13;7.13;;;15.00;99.90;;;;;;5083432;28;20687;-38
2021/09/21 08:40:07;;;;;;;14.80;7.83;;;15.00;99.90;;;;;;5078031;28;20204;-37
2021/09/21 08:42:33;;;;;;;9.63;7.10;;;15.10;99.90;;;;;;5087901;28;20193;-37
2021/09/21 08:44:58;;;;;;;8.23;6.00;;;15.20;99.90;;;;;;5089891;28;20418;-37
2021/09/21 08:47:25;;;;;;;9.40;6.20;;;15.20;99.90;;;;;;5089216;28;20423;-37
2021/09/21 08:49:50;;;;;;;8.70;5.57;;;15.20;99.90;;;;;;5089137;28;20608;-38
2021/09/21 08:52:16;;;;;;;6.50;4.90;;;15.20;99.90;;;;;;5089288;28;20462;-37
2021/09/21 08:54:42;;;;;;;5.63;4.80;;;15.30;99.90;;;;;;5081011;28;20215;-37
2021/09/21 08:57:08;;;;;;;7.03;5.40;;;15.40;99.90;;;;;;5087592;28;20192;-36
2021/09/21 08:59:39;;;;;;;6.70;5.93;;;15.50;99.90;;;;;;5088571;28;20393;-37
2021/09/21 09:02:09;;;;;;;7.80;5.80;;;15.60;99.90;;;;;;5089183;28;20268;-37
2021/09/21 09:04:37;;;;;;;7.80;5.63;;;15.60;99.90;;;;;;5088619;28;20519;-37
2021/09/21 09:07:03;;;;;;;6.73;4.93;;;15.70;99.90;;;;;;5088924;28;20612;-37
2021/09/21 09:09:32;;;;;;;7.53;5.67;;;15.70;99.90;;;;;;5073904;28;20451;-37
2021/09/21 09:12:00;;;;;;;9.87;5.90;;;15.80;99.90;;;;;;5088514;28;20565;-37
2021/09/21 09:14:32;;;;;;;7.63;3.80;;;15.90;99.90;;;;;;5088799;28;20466;-37
2021/09/21 09:17:06;;;;;;;5.63;3.87;;;16.00;99.90;;;;;;5088756;28;20425;-37
2021/09/21 09:19:50;;;;;;;6.07;4.33;;;16.00;99.90;;;;;;5088344;28;20475;-37
2021/09/21 09:22:21;;;;;;;4.63;3.73;;;16.10;99.90;;;;;;5088872;28;20525;-38
2021/09/21 09:24:49;;;;;;;5.20;4.70;;;16.20;99.90;;;;;;5077956;28;20672;-38
2021/09/21 09:27:16;;;;;;;6.50;4.70;;;16.20;99.90;;;;;;5089046;28;20896;-37
2021/09/21 09:30:00;;;;;;;5.67;5.03;;;16.30;99.90;;;;;;5088272;28;20418;-37
2021/09/21 09:32:26;;;;;;;5.77;4.10;;;16.40;99.90;;;;;;5088614;28;20502;-37
2021/09/21 09:34:52;;;;;;;5.17;4.67;;;16.50;99.90;;;;;;5087536;28;20594;-37
2021/09/21 09:37:18;;;;;;;6.77;5.00;;;16.70;99.90;;;;;;5088888;28;20768;-38
2021/09/21 09:39:46;;;;;;;7.50;4.90;;;16.70;99.90;;;;;;5076420;28;20439;-37
2021/09/21 09:42:13;;;;;;;6.73;5.37;;;16.80;99.90;;;;;;5088506;28;20581;-37
2021/09/21 09:44:40;;;;;;;6.60;5.03;;;16.90;99.90;;;;;;5088846;28;20800;-37
2021/09/21 09:47:07;;;;;;;6.50;4.40;;;17.00;99.90;;;;;;5088215;28;20441;-37
2021/09/21 09:49:42;;;;;;;5.80;4.73;;;17.00;99.90;;;;;;5087777;28;20583;-38
2021/09/21 09:52:13;;;;;;;4.80;4.27;;;17.10;99.90;;;;;;5087643;28;20429;-37
2021/09/21 09:54:41;;;;;;;4.27;3.63;;;17.20;99.90;;;;;;5075782;28;20554;-37
2021/09/21 09:57:08;;;;;;;4.30;3.20;;;17.30;99.90;;;;;;5086707;28;21390;-37
2021/09/21 09:59:35;;;;;;;6.63;4.07;;;17.40;99.90;;;;;;5087710;28;20427;-38
2021/09/21 10:02:00;;;;;;;3.80;2.80;;;17.40;99.70;;;;;;5088127;28;20426;-37
2021/09/21 10:04:26;;;;;;;3.43;2.77;;;17.50;99.90;;;;;;5088107;28;20426;-37
2021/09/21 10:06:52;;;;;;;4.30;3.90;;;17.50;99.90;;;;;;5088024;28;20506;-37
2021/09/21 10:09:19;;;;;;;5.47;4.20;;;17.50;98.20;;;;;;5080355;28;20205;-37
2021/09/21 10:11:49;;;;;;;4.23;2.90;;;17.60;98.90;;;;;;5085237;28;20277;-37
2021/09/21 10:14:18;;;;;;;3.93;2.83;;;17.60;97.90;;;;;;5086561;28;20446;-37
2021/09/21 10:17:02;;;;;;;2.90;2.60;;;17.60;97.60;;;;;;5074326;28;20770;-37
2021/09/21 10:19:29;;;;;;;2.90;2.07;;;17.70;97.20;;;;;;5086923;28;20421;-38
2021/09/21 10:21:55;;;;;;;6.80;2.47;;;17.70;97.20;;;;;;5087684;28;20505;-38
2021/09/21 10:24:37;;;;;;;2.30;2.10;;;17.70;95.10;;;;;;5082734;28;20495;-38
2021/09/21 10:27:07;;;;;;;3.17;2.87;;;17.80;95.40;;;;;;5079247;28;20433;-37
2021/09/21 10:29:32;;;;;;;5.77;3.40;;;17.80;95.00;;;;;;5087243;28;20460;-38
2021/09/21 10:31:58;;;;;;;3.10;2.83;;;17.80;95.10;;;;;;5087240;28;20438;-37
2021/09/21 10:34:25;;;;;;;4.10;3.20;;;17.80;95.30;;;;;;5086137;28;20293;-38
2021/09/21 10:36:53;;;;;;;4.43;2.80;;;17.80;95.80;;;;;;5087386;28;20426;-37
2021/09/21 10:39:21;;;;;;;4.53;4.13;;;17.90;97.30;;;;;;5079638;28;20423;-37
2021/09/21 10:41:51;;;;;;;7.57;3.67;;;17.90;98.00;;;;;;5080037;28;20422;-38
2021/09/21 10:44:19;;;;;;;5.10;4.20;;;18.00;97.20;;;;;;5087163;28;20429;-38
2021/09/21 10:46:54;;;;;;;5.13;3.37;;;18.00;97.10;;;;;;5087111;28;20429;-37
2021/09/21 10:49:31;;;;;;;4.77;3.37;;;18.00;96.60;;;;;;5086627;28;20489;-37
2021/09/21 10:52:03;;;;;;;4.63;3.47;;;18.10;96.80;;;;;;5087262;28;20406;-37
2021/09/21 10:54:37;;;;;;;5.47;4.43;;;18.10;97.20;;;;;;5079805;28;20554;-38
2021/09/21 10:57:15;;;;;;;6.10;4.03;;;18.00;96.00;;;;;;5082603;28;20475;-38
2021/09/21 10:59:57;;;;;;;4.30;3.47;;;17.80;95.90;;;;;;5086466;28;20415;-37
2021/09/21 11:02:28;;;;;;;5.53;4.00;;;17.80;95.80;;;;;;5086961;28;20413;-38
2021/09/21 11:04:53;;;;;;;3.73;3.43;;;17.70;96.10;;;;;;5086013;28;20796;-37
2021/09/21 11:07:19;;;;;;;5.23;3.70;;;17.80;96.30;;;;;;5068645;28;20414;-37
2021/09/21 11:09:52;;;;;;;3.70;3.40;;;17.80;95.90;;;;;;5080762;28;20251;-37
2021/09/21 11:12:20;;;;;;;3.97;3.23;;;17.70;96.60;;;;;;5082420;28;20410;-38
2021/09/21 11:14:47;;;;;;;3.60;3.30;;;17.70;97.10;;;;;;5081446;28;20455;-37
2021/09/21 11:17:14;;;;;;;3.40;3.10;;;17.80;97.80;;;;;;5076466;28;20513;-38
2021/09/21 11:19:40;;;;;;;4.27;3.00;;;17.90;97.30;;;;;;5085809;28;20418;-37
2021/09/21 11:22:12;;;;;;;4.80;3.23;;;18.00;97.20;;;;;;5086505;28;20514;-37
2021/09/21 11:24:39;;;;;;;4.63;3.40;;;18.10;97.40;;;;;;5081848;28;20458;-37
2021/09/21 11:27:07;;;;;;;3.80;3.10;;;18.10;96.00;;;;;;5080901;28;20430;-37
2021/09/21 11:29:36;;;;;;;3.30;2.80;;;18.10;96.60;;;;;;5085743;28;20434;-38
2021/09/21 11:32:13;;;;;;;4.20;3.30;;;18.20;97.10;;;;;;5086737;28;20442;-38
2021/09/21 11:34:38;;;;;;;4.00;3.03;;;18.20;96.20;;;;;;5085903;28;20512;-37
2021/09/21 11:37:06;;;;;;;2.77;2.50;;;18.30;96.10;;;;;;5086359;28;20453;-38
2021/09/21 11:39:32;;;;;;;2.43;2.23;;;18.30;95.60;;;;;;5082657;28;20646;-37
2021/09/21 11:41:58;;;;;;;2.50;2.30;;;18.30;96.00;;;;;;5080446;28;20495;-37
2021/09/21 11:44:25;;;;;;;5.43;3.03;;;18.30;95.30;;;;;;5081339;28;20733;-37
2021/09/21 11:46:58;;;;;;;3.10;2.80;;;18.30;96.30;;;;;;5086130;28;20410;-37
2021/09/21 11:49:24;;;;;;;2.83;2.63;;;18.30;96.20;;;;;;5085345;28;20421;-37
2021/09/21 11:51:49;;;;;;;2.73;2.40;;;18.20;95.50;;;;;;5086191;28;20410;-37
2021/09/21 11:54:17;;;;;;;3.60;3.00;;;18.30;95.80;;;;;;5086072;28;20212;-37
2021/09/21 11:56:43;;;;;;;3.77;2.33;;;18.30;97.30;;;;;;5077124;28;20434;-37
2021/09/21 11:59:09;;;;;;;3.20;2.63;;;18.40;97.40;;;;;;5085341;28;20936;-37
2021/09/21 12:01:34;;;;;;;2.53;2.33;;;18.40;96.60;;;;;;5085495;28;20211;-37
2021/09/21 12:04:00;;;;;;;3.00;2.30;;;18.50;96.50;;;;;;5085767;28;20184;-37
2021/09/21 12:06:34;;;;;;;3.03;2.73;;;18.50;95.80;;;;;;5085618;28;20229;-38
2021/09/21 12:09:03;;;;;;;4.23;2.37;;;18.60;95.70;;;;;;5083015;28;20278;-37
2021/09/21 12:11:28;;;;;;;2.70;2.20;;;18.50;95.10;;;;;;5080689;28;20797;-37
2021/09/21 12:13:58;;;;;;;5.30;2.70;;;18.50;95.50;;;;;;5084655;28;20458;-38
2021/09/21 12:16:27;;;;;;;3.07;2.67;;;18.50;95.20;;;;;;5073691;28;20374;-37
2021/09/21 12:18:53;;;;;;;4.73;2.90;;;18.50;94.40;;;;;;5089156;28;20421;-37
2021/09/21 12:21:19;;;;;;;6.70;2.50;;;18.40;95.00;;;;;;5092182;28;20421;-37
2021/09/21 12:23:47;;;;;;;2.97;2.30;;;18.40;95.20;;;;;;5092365;28;20192;-37
2021/09/21 12:26:18;;;;;;;2.73;2.53;;;18.30;94.50;;;;;;5080136;28;20522;-37
2021/09/21 12:28:53;;;;;;;2.37;2.17;;;18.30;95.70;;;;;;5089518;28;20422;-37
2021/09/21 12:31:27;;;;;;;3.80;2.50;;;18.50;96.60;;;;;;5092689;28;20445;-38
2021/09/21 12:33:57;;;;;;;5.63;3.00;;;18.50;96.40;;;;;;5092347;28;20449;-37
2021/09/21 12:36:24;;;;;;;5.10;3.40;;;18.50;95.00;;;;;;5092673;28;20433;-38
2021/09/21 12:39:09;;;;;;;3.40;3.10;;;18.50;96.00;;;;;;5092477;28;20421;-38
2021/09/21 12:41:43;;;;;;;3.50;2.87;;;18.50;96.10;;;;;;5078243;28;20426;-37
2021/09/21 12:44:11;;;;;;;4.60;2.90;;;18.60;97.20;;;;;;5090756;28;20784;-37
2021/09/21 12:46:41;;;;;;;3.50;2.60;;;18.60;96.70;;;;;;5091046;28;20539;-38
2021/09/21 12:49:07;;;;;;;3.20;2.57;;;18.70;97.00;;;;;;5091443;28;20782;-37
2021/09/21 12:51:37;;;;;;;7.43;3.30;;;18.80;96.20;;;;;;5091804;28;20422;-38
2021/09/21 12:54:05;;;;;;;4.60;3.50;;;18.90;96.60;;;;;;5092306;28;20583;-37
2021/09/21 12:56:33;;;;;;;4.00;3.07;;;18.90;96.40;;;;;;5079708;28;20448;-37
2021/09/21 12:59:12;;;;;;;6.00;3.00;;;19.00;96.80;;;;;;5091357;28;20410;-37